Time;durP1;ratioP1;P1;durP2;ratioP2;P2;SDS_P1;SDS_P2;PMS_P1;PMS_P2;Temp;Humidity;BMP_temperature;BMP_pressure;BME280_temperature;BME280_humidity;BME280_pressure;Samples;Min_cycle;Max_cycle;Signal;HPM_P1;HPM_P2
2022/05/10 00:00:10;;;;;;;14.52;6.00;;;13.40;99.90;;;;;;5049088;28;20044;-81
2022/05/10 00:02:35;;;;;;;11.73;6.47;;;13.30;99.90;;;;;;5049660;28;20041;-81
2022/05/10 00:05:02;;;;;;;13.88;6.72;;;13.30;99.90;;;;;;5049626;28;20038;-81
2022/05/10 00:07:32;;;;;;;10.63;5.90;;;13.30;99.90;;;;;;5051480;28;20037;-81
2022/05/10 00:09:57;;;;;;;16.73;6.85;;;13.10;99.90;;;;;;5050497;28;20151;-80
2022/05/10 00:12:23;;;;;;;14.18;6.85;;;13.20;99.90;;;;;;5051666;28;20053;-81
2022/05/10 00:14:48;;;;;;;10.43;6.40;;;13.10;99.90;;;;;;5049269;28;20033;-80
2022/05/10 00:17:30;;;;;;;15.88;7.10;;;13.00;99.90;;;;;;5050998;28;20040;-80
2022/05/10 00:19:56;;;;;;;14.40;6.72;;;13.00;99.90;;;;;;5034818;28;20491;-81
2022/05/10 00:22:22;;;;;;;12.82;6.28;;;13.00;99.90;;;;;;5033857;28;20036;-81
2022/05/10 00:24:48;;;;;;;10.88;6.38;;;13.00;99.90;;;;;;5038966;28;20538;-80
2022/05/10 00:27:13;;;;;;;11.13;6.40;;;12.90;99.90;;;;;;5032642;28;20033;-80
2022/05/10 00:29:39;;;;;;;11.63;6.47;;;13.10;99.90;;;;;;5044135;28;20048;-80
2022/05/10 00:32:05;;;;;;;12.02;6.43;;;13.10;99.90;;;;;;5048051;28;20047;-81
2022/05/10 00:34:31;;;;;;;9.60;5.85;;;13.00;99.90;;;;;;5048842;28;20028;-81
2022/05/10 00:36:56;;;;;;;13.48;6.43;;;13.10;99.90;;;;;;5034383;28;20537;-80
2022/05/10 00:39:22;;;;;;;11.85;6.30;;;13.00;99.90;;;;;;5035560;28;20044;-81
2022/05/10 00:42:10;;;;;;;10.88;6.45;;;13.00;99.90;;;;;;5034142;28;20506;-80
2022/05/10 00:44:49;;;;;;;12.30;6.40;;;13.10;99.90;;;;;;5048710;28;20037;-80
2022/05/10 00:47:31;;;;;;;11.63;6.13;;;13.10;99.90;;;;;;5043756;28;20121;-80
2022/05/10 00:50:07;;;;;;;11.52;6.47;;;13.10;99.90;;;;;;5031097;28;20511;-80
2022/05/10 00:52:44;;;;;;;9.43;5.97;;;13.10;99.90;;;;;;5028074;28;20061;-80
2022/05/10 00:55:16;;;;;;;10.52;5.97;;;13.10;99.90;;;;;;5050044;28;20051;-80
2022/05/10 00:57:53;;;;;;;8.98;5.35;;;13.10;99.90;;;;;;5034947;28;20041;-80
2022/05/10 01:00:21;;;;;;;13.52;6.93;;;13.10;99.90;;;;;;5049905;28;20045;-80
2022/05/10 01:02:50;;;;;;;11.93;6.35;;;13.10;99.90;;;;;;5026277;28;20490;-80
2022/05/10 01:05:36;;;;;;;13.48;6.22;;;13.10;99.90;;;;;;5045515;28;20071;-80
2022/05/10 01:08:19;;;;;;;9.77;5.95;;;13.10;99.90;;;;;;5045319;28;20033;-79
2022/05/10 01:10:50;;;;;;;12.70;6.13;;;13.10;99.90;;;;;;5048250;28;20127;-80
2022/05/10 01:13:28;;;;;;;12.80;5.63;;;13.10;99.90;;;;;;5049293;28;20037;-80
2022/05/10 01:16:18;;;;;;;11.18;5.82;;;13.10;99.90;;;;;;5043482;28;20045;-79
2022/05/10 01:18:45;;;;;;;12.02;6.00;;;13.10;99.90;;;;;;5051142;28;20040;-79
2022/05/10 01:21:37;;;;;;;7.53;5.63;;;13.10;99.90;;;;;;5048253;28;20057;-79
2022/05/10 01:24:31;;;;;;;12.43;6.05;;;13.10;99.90;;;;;;5042049;28;20045;-80
2022/05/10 01:27:15;;;;;;;14.30;6.25;;;13.20;99.90;;;;;;5046036;28;20033;-79
2022/05/10 01:29:57;;;;;;;12.38;5.97;;;13.20;99.90;;;;;;5049004;28;20087;-79
2022/05/10 01:35:33;;;;;;;8.80;5.18;;;13.20;99.90;;;;;;5049059;28;20044;-78
2022/05/10 01:38:05;;;;;;;9.55;5.75;;;13.20;99.90;;;;;;5049465;28;20119;-79
2022/05/10 01:40:47;;;;;;;13.43;6.28;;;13.20;99.90;;;;;;5047798;28;20124;-78
2022/05/10 01:43:18;;;;;;;12.07;5.68;;;13.20;99.90;;;;;;5032928;28;20044;-79
2022/05/10 01:45:49;;;;;;;11.25;6.15;;;13.30;99.90;;;;;;5015825;28;20045;-79
2022/05/10 01:48:18;;;;;;;12.27;5.85;;;13.30;99.90;;;;;;5049886;28;20044;-79
2022/05/10 01:50:46;;;;;;;9.57;5.90;;;13.30;99.90;;;;;;5039997;28;20047;-78
2022/05/10 01:53:20;;;;;;;11.18;5.88;;;13.20;99.90;;;;;;5046045;28;20041;-79
2022/05/10 01:56:04;;;;;;;14.25;6.45;;;13.20;99.90;;;;;;5039785;28;20047;-78
2022/05/10 01:58:33;;;;;;;12.65;5.88;;;13.20;99.90;;;;;;5047136;28;20094;-78
2022/05/10 02:01:00;;;;;;;13.38;5.93;;;13.20;99.90;;;;;;5029250;28;20060;-78
2022/05/10 02:03:42;;;;;;;11.20;5.78;;;13.10;99.90;;;;;;5041697;28;20128;-78
2022/05/10 02:06:20;;;;;;;10.65;5.65;;;13.10;99.90;;;;;;5048205;28;20041;-78
2022/05/10 02:09:29;;;;;;;18.83;6.60;;;13.10;99.90;;;;;;5043288;28;20037;-78
2022/05/10 02:12:03;;;;;;;11.95;5.60;;;13.20;99.90;;;;;;5036234;28;20183;-78
2022/05/10 02:14:43;;;;;;;11.55;5.80;;;13.10;99.90;;;;;;5048230;28;20112;-77
2022/05/10 02:17:14;;;;;;;11.32;5.68;;;13.10;99.90;;;;;;5042513;28;20048;-77
2022/05/10 02:20:01;;;;;;;11.30;6.07;;;13.10;99.90;;;;;;5046192;28;20041;-77
2022/05/10 02:23:04;;;;;;;14.30;5.38;;;13.10;99.90;;;;;;5028380;28;20040;-77
2022/05/10 02:25:37;;;;;;;11.27;5.78;;;13.10;99.90;;;;;;5047567;28;20037;-78
2022/05/10 02:28:41;;;;;;;13.88;5.95;;;13.10;99.90;;;;;;5051921;28;20043;-77
2022/05/10 02:31:21;;;;;;;8.25;5.35;;;13.20;99.90;;;;;;5048261;28;20469;-77
2022/05/10 02:33:49;;;;;;;13.00;5.95;;;13.20;99.90;;;;;;5032084;28;20067;-77
2022/05/10 02:36:15;;;;;;;10.77;5.35;;;13.20;99.90;;;;;;5038145;28;20438;-77
2022/05/10 02:38:41;;;;;;;10.05;5.45;;;13.20;99.90;;;;;;5035528;28;20037;-77
2022/05/10 02:41:12;;;;;;;8.98;6.05;;;13.20;99.90;;;;;;5050113;28;20029;-77
2022/05/10 02:43:56;;;;;;;11.25;6.25;;;13.20;99.90;;;;;;5049775;28;20033;-77
2022/05/10 02:46:22;;;;;;;10.52;6.18;;;13.30;99.90;;;;;;5032554;28;20037;-77
2022/05/10 02:48:49;;;;;;;12.68;5.90;;;13.30;99.90;;;;;;5026607;28;20067;-77
2022/05/10 02:51:17;;;;;;;10.07;5.47;;;13.30;99.90;;;;;;5046833;28;20056;-77
2022/05/10 02:53:42;;;;;;;12.32;5.90;;;13.30;99.90;;;;;;5048639;28;20036;-77
2022/05/10 02:56:12;;;;;;;13.30;6.20;;;13.30;99.90;;;;;;5047690;28;20037;-77
2022/05/10 02:59:09;;;;;;;13.15;6.38;;;13.30;99.90;;;;;;5052037;28;20089;-77
2022/05/10 03:01:35;;;;;;;10.93;6.00;;;13.30;99.90;;;;;;5035340;28;20053;-77
2022/05/10 03:04:03;;;;;;;9.05;5.35;;;13.20;99.90;;;;;;5049781;28;20037;-77
2022/05/10 03:06:30;;;;;;;11.55;6.05;;;13.20;99.90;;;;;;5034564;28;20037;-77
2022/05/10 03:08:57;;;;;;;11.65;6.13;;;13.30;99.90;;;;;;5038735;28;20090;-77
2022/05/10 03:11:23;;;;;;;12.50;6.40;;;13.30;99.90;;;;;;5034673;28;20575;-76
2022/05/10 03:13:49;;;;;;;9.20;6.22;;;13.30;99.90;;;;;;5048641;28;20128;-77
2022/05/10 03:16:16;;;;;;;11.75;5.90;;;13.40;99.90;;;;;;5050543;28;20060;-77
2022/05/10 03:18:42;;;;;;;11.23;6.35;;;13.30;99.90;;;;;;5051603;28;20128;-77
2022/05/10 03:21:08;;;;;;;10.38;6.15;;;13.40;99.90;;;;;;5035011;28;20071;-76
2022/05/10 03:23:35;;;;;;;10.77;6.72;;;13.30;99.90;;;;;;5052026;28;20068;-77
2022/05/10 03:26:01;;;;;;;12.43;6.03;;;13.40;99.90;;;;;;5048617;28;20434;-76
2022/05/10 03:28:27;;;;;;;15.65;6.95;;;13.40;99.90;;;;;;5049472;28;20486;-77
2022/05/10 03:30:53;;;;;;;14.57;6.80;;;13.30;99.90;;;;;;5038535;28;20060;-77
2022/05/10 03:33:19;;;;;;;11.68;5.95;;;13.30;99.90;;;;;;5031635;28;20056;-76
2022/05/10 03:35:44;;;;;;;12.23;6.22;;;13.30;99.90;;;;;;5030871;28;20523;-76
2022/05/10 03:38:10;;;;;;;14.98;6.82;;;13.20;99.90;;;;;;5043746;28;20033;-76
2022/05/10 03:40:35;;;;;;;14.38;6.63;;;13.30;99.90;;;;;;5050420;28;20098;-76
2022/05/10 03:43:01;;;;;;;10.25;6.60;;;13.30;99.90;;;;;;5033795;28;20041;-76
2022/05/10 03:45:28;;;;;;;13.40;6.45;;;13.30;99.90;;;;;;5049117;28;20120;-76
2022/05/10 03:47:54;;;;;;;13.32;6.80;;;13.30;99.90;;;;;;5050386;28;20032;-76
2022/05/10 03:50:22;;;;;;;11.43;7.07;;;13.30;99.90;;;;;;5049959;28;20057;-77
2022/05/10 03:52:48;;;;;;;17.20;7.72;;;13.30;99.90;;;;;;5039095;28;20526;-77
2022/05/10 03:55:22;;;;;;;13.50;6.95;;;13.30;99.90;;;;;;5030476;28;20072;-76
2022/05/10 03:57:48;;;;;;;11.95;6.78;;;13.30;99.90;;;;;;5031322;28;20377;-76
2022/05/10 04:00:20;;;;;;;13.77;7.30;;;13.30;99.90;;;;;;5026816;28;20036;-77
2022/05/10 04:02:46;;;;;;;13.15;7.28;;;13.30;99.90;;;;;;5046087;28;20116;-76
2022/05/10 04:05:13;;;;;;;14.10;7.80;;;13.30;99.90;;;;;;5045059;28;20119;-76
2022/05/10 04:07:40;;;;;;;14.85;7.38;;;13.30;99.90;;;;;;5048234;28;20051;-77
2022/05/10 04:10:08;;;;;;;13.57;7.55;;;13.30;99.90;;;;;;5047317;28;20040;-76
2022/05/10 04:12:35;;;;;;;17.23;7.82;;;13.30;99.90;;;;;;5048867;28;20124;-77
2022/05/10 04:15:00;;;;;;;11.93;7.38;;;13.40;99.90;;;;;;5047116;28;20555;-76
2022/05/10 04:17:26;;;;;;;12.63;7.30;;;13.30;99.90;;;;;;5050369;28;20037;-76
2022/05/10 04:19:51;;;;;;;14.32;7.95;;;13.30;99.90;;;;;;5050433;28;20052;-76
2022/05/10 04:22:17;;;;;;;14.93;7.97;;;13.30;99.90;;;;;;5050479;28;20029;-76
2022/05/10 04:24:43;;;;;;;16.00;7.22;;;13.40;99.90;;;;;;5049846;28;20052;-76
2022/05/10 04:27:08;;;;;;;13.15;7.70;;;13.40;99.90;;;;;;5049017;28;20833;-76
2022/05/10 04:29:34;;;;;;;12.57;8.45;;;13.40;99.90;;;;;;5047775;28;20052;-76
2022/05/10 04:32:00;;;;;;;15.65;7.43;;;13.40;99.90;;;;;;5032301;28;20055;-76
2022/05/10 04:34:25;;;;;;;12.80;7.68;;;13.50;99.90;;;;;;5048133;28;20048;-76
2022/05/10 04:36:51;;;;;;;12.40;7.78;;;13.50;99.90;;;;;;5049266;28;20186;-76
2022/05/10 04:39:17;;;;;;;15.55;7.88;;;13.50;99.90;;;;;;5044758;28;20052;-76
2022/05/10 04:41:49;;;;;;;11.65;7.60;;;13.60;99.90;;;;;;5047188;28;20037;-77
2022/05/10 04:44:15;;;;;;;15.20;8.13;;;13.60;99.90;;;;;;5032705;28;20040;-76
2022/05/10 04:46:42;;;;;;;15.07;7.95;;;13.60;99.90;;;;;;5030979;28;20095;-76
2022/05/10 04:49:12;;;;;;;14.90;8.38;;;13.60;99.90;;;;;;5045909;28;20410;-77
2022/05/10 04:51:39;;;;;;;15.50;8.13;;;13.70;99.90;;;;;;5048960;28;20086;-77
2022/05/10 04:54:05;;;;;;;11.18;7.70;;;13.70;99.90;;;;;;5041404;28;20485;-77
2022/05/10 04:56:30;;;;;;;14.25;7.95;;;13.70;99.90;;;;;;5048316;28;20041;-77
2022/05/10 04:58:56;;;;;;;17.88;8.68;;;13.70;99.90;;;;;;5030170;28;20383;-77
2022/05/10 05:01:26;;;;;;;12.90;8.23;;;13.70;99.90;;;;;;5041423;28;20041;-77
2022/05/10 05:03:55;;;;;;;16.23;8.25;;;13.70;99.90;;;;;;5045121;28;20064;-77
2022/05/10 05:06:22;;;;;;;15.38;8.65;;;13.70;99.90;;;;;;5028033;28;20029;-77
2022/05/10 05:08:47;;;;;;;13.60;8.77;;;13.80;99.90;;;;;;5048572;28;20033;-77
2022/05/10 05:11:13;;;;;;;14.82;8.50;;;13.80;99.90;;;;;;5065061;28;20104;-76
2022/05/10 05:13:38;;;;;;;11.88;9.00;;;13.80;99.90;;;;;;5049455;28;21355;-77
2022/05/10 05:16:05;;;;;;;15.25;8.38;;;13.90;99.90;;;;;;5048295;28;20123;-77
2022/05/10 05:18:30;;;;;;;16.08;8.30;;;13.90;99.90;;;;;;5048667;28;20521;-77
2022/05/10 05:20:56;;;;;;;15.85;9.55;;;13.90;99.90;;;;;;5048512;28;20037;-77
2022/05/10 05:23:22;;;;;;;16.55;8.90;;;14.00;99.90;;;;;;5047688;28;20040;-76
2022/05/10 05:25:49;;;;;;;17.90;8.88;;;14.00;99.90;;;;;;5045140;28;20051;-77
2022/05/10 05:28:15;;;;;;;14.80;9.15;;;14.00;99.90;;;;;;5048463;28;20135;-77
2022/05/10 05:30:42;;;;;;;14.02;8.88;;;14.00;99.90;;;;;;5047214;28;20083;-77
2022/05/10 05:33:08;;;;;;;18.88;9.43;;;14.10;99.90;;;;;;5049395;28;20116;-77
2022/05/10 05:35:34;;;;;;;17.55;8.65;;;14.20;99.90;;;;;;5034389;28;20040;-77
2022/05/10 05:38:00;;;;;;;16.33;8.98;;;14.20;99.90;;;;;;5047517;28;20047;-77
2022/05/10 05:40:26;;;;;;;17.52;8.98;;;14.30;99.90;;;;;;5032114;28;20037;-77
2022/05/10 05:42:53;;;;;;;15.88;9.23;;;14.30;99.90;;;;;;5046354;28;20078;-76
2022/05/10 05:45:22;;;;;;;17.70;8.88;;;14.40;99.90;;;;;;5045931;28;20057;-77
2022/05/10 05:47:47;;;;;;;14.13;9.20;;;14.40;99.90;;;;;;5061509;28;20584;-77
2022/05/10 05:50:15;;;;;;;16.05;9.45;;;14.50;99.90;;;;;;5021481;28;20068;-77
2022/05/10 05:52:41;;;;;;;15.48;9.20;;;14.60;99.90;;;;;;5049256;28;20045;-77
2022/05/10 05:55:07;;;;;;;16.35;9.32;;;14.60;99.90;;;;;;5032109;28;20116;-77
2022/05/10 05:57:33;;;;;;;18.10;9.43;;;14.70;99.90;;;;;;5046084;28;20507;-76
2022/05/10 05:59:59;;;;;;;14.73;9.18;;;14.70;99.90;;;;;;5043168;28;20051;-77
2022/05/10 06:02:26;;;;;;;18.30;9.20;;;14.90;99.90;;;;;;5048263;28;20041;-77
2022/05/10 06:04:52;;;;;;;15.93;9.25;;;14.90;99.90;;;;;;5035440;28;20140;-77
2022/05/10 06:07:18;;;;;;;19.52;9.05;;;15.00;99.90;;;;;;5052544;28;20072;-77
2022/05/10 06:09:45;;;;;;;20.60;9.65;;;15.10;99.90;;;;;;5052929;28;20037;-77
2022/05/10 06:12:13;;;;;;;15.45;8.93;;;15.20;99.90;;;;;;5052736;28;20032;-77
2022/05/10 06:14:38;;;;;;;13.52;9.18;;;15.30;99.90;;;;;;5047306;28;20033;-77
2022/05/10 06:17:05;;;;;;;15.57;9.25;;;15.50;99.90;;;;;;5044302;28;20037;-77
2022/05/10 06:19:32;;;;;;;14.63;9.30;;;15.70;99.90;;;;;;5043351;28;20052;-77
2022/05/10 06:21:58;;;;;;;14.45;9.07;;;15.80;99.90;;;;;;5047544;28;20530;-77
2022/05/10 06:24:24;;;;;;;14.85;8.63;;;15.90;99.90;;;;;;5057254;28;20024;-77
2022/05/10 06:26:50;;;;;;;13.52;8.57;;;16.10;99.90;;;;;;5045058;28;20572;-77
2022/05/10 06:29:16;;;;;;;14.35;8.82;;;16.30;99.90;;;;;;5030366;28;20041;-77
2022/05/10 06:31:46;;;;;;;16.02;9.10;;;16.50;99.90;;;;;;5046312;28;20041;-77
2022/05/10 06:34:12;;;;;;;16.75;8.32;;;16.60;99.90;;;;;;5047540;28;20068;-77
2022/05/10 06:36:40;;;;;;;12.10;7.47;;;16.80;99.90;;;;;;5030399;28;20055;-77
2022/05/10 06:39:06;;;;;;;12.55;7.90;;;17.00;99.90;;;;;;5043968;28;20056;-77
2022/05/10 06:41:32;;;;;;;14.02;7.60;;;17.30;99.90;;;;;;5045152;28;20460;-77
2022/05/10 06:43:58;;;;;;;13.20;7.90;;;17.50;99.90;;;;;;5043970;28;20037;-75
2022/05/10 06:46:26;;;;;;;12.55;7.28;;;17.70;99.90;;;;;;5046702;28;20041;-76
2022/05/10 06:48:52;;;;;;;9.88;7.25;;;17.80;99.90;;;;;;5045106;28;20060;-77
2022/05/10 06:51:21;;;;;;;10.05;6.70;;;17.90;99.90;;;;;;5047031;28;20032;-77
2022/05/10 06:53:47;;;;;;;12.82;7.10;;;18.00;99.90;;;;;;5045740;28;20056;-77
2022/05/10 06:56:13;;;;;;;13.57;6.78;;;18.10;99.90;;;;;;5047553;28;20454;-77
2022/05/10 06:58:38;;;;;;;11.95;6.60;;;18.10;99.90;;;;;;5047432;28;20033;-77
2022/05/10 07:01:11;;;;;;;11.00;6.35;;;18.20;99.90;;;;;;5030864;28;20116;-77
2022/05/10 07:03:38;;;;;;;10.75;6.15;;;18.20;99.90;;;;;;5047078;28;20044;-77
2022/05/10 07:06:06;;;;;;;11.13;6.07;;;18.40;99.90;;;;;;5047485;28;20072;-78
2022/05/10 07:08:32;;;;;;;8.82;6.43;;;18.50;99.90;;;;;;5046129;28;20056;-77
2022/05/10 07:10:58;;;;;;;10.38;6.47;;;18.60;99.90;;;;;;5048873;28;20041;-78
2022/05/10 07:13:26;;;;;;;9.27;5.85;;;18.60;99.90;;;;;;5050721;28;20037;-78
2022/05/10 07:15:52;;;;;;;12.73;6.28;;;18.70;99.90;;;;;;5051596;28;20422;-78
2022/05/10 07:18:18;;;;;;;12.63;5.80;;;18.80;99.90;;;;;;5036509;28;20056;-79
2022/05/10 07:20:45;;;;;;;12.90;5.78;;;18.90;99.90;;;;;;5017037;28;20044;-78
2022/05/10 07:23:12;;;;;;;10.38;6.05;;;18.90;99.90;;;;;;5044620;28;20033;-79
2022/05/10 07:25:38;;;;;;;11.23;6.07;;;19.00;99.90;;;;;;5030663;28;20064;-78
2022/05/10 07:28:06;;;;;;;9.80;5.88;;;19.20;99.90;;;;;;5046061;28;20059;-78
2022/05/10 07:30:33;;;;;;;14.13;6.43;;;19.30;99.90;;;;;;5051233;28;20725;-79
2022/05/10 07:32:59;;;;;;;11.18;6.22;;;19.50;99.90;;;;;;5051194;28;20033;-79
2022/05/10 07:38:12;;;;;;;13.27;5.97;;;19.80;99.90;;;;;;5034273;28;20065;-80
2022/05/10 07:40:38;;;;;;;15.98;6.40;;;19.90;99.90;;;;;;5033681;28;20037;-79
2022/05/10 07:43:06;;;;;;;10.70;5.28;;;20.00;99.90;;;;;;5033661;28;20045;-79
2022/05/10 07:45:32;;;;;;;13.18;5.40;;;20.10;99.90;;;;;;5032473;28;20533;-79
2022/05/10 07:47:58;;;;;;;10.30;5.18;;;20.20;99.90;;;;;;5035617;28;20037;-79
2022/05/10 07:50:23;;;;;;;9.43;4.88;;;20.20;99.90;;;;;;5034563;28;20134;-80
2022/05/10 07:52:49;;;;;;;10.32;5.15;;;20.30;99.90;;;;;;5035963;28;20040;-79
2022/05/10 07:55:14;;;;;;;10.90;4.43;;;20.30;99.90;;;;;;5034788;28;20419;-79
2022/05/10 07:57:43;;;;;;;8.30;4.55;;;20.30;99.90;;;;;;5034403;28;20037;-80
2022/05/10 08:00:13;;;;;;;10.52;5.00;;;20.40;99.90;;;;;;5036247;28;20172;-80
2022/05/10 08:02:43;;;;;;;9.40;4.45;;;20.50;99.90;;;;;;5037294;28;20397;-80
2022/05/10 08:05:21;;;;;;;8.27;4.47;;;20.50;99.90;;;;;;5038024;28;20431;-82
2022/05/10 08:07:47;;;;;;;9.20;4.25;;;20.60;99.90;;;;;;5037254;28;20029;-81
2022/05/10 08:10:14;;;;;;;9.82;4.32;;;20.70;99.90;;;;;;5038556;28;20045;-80
2022/05/10 08:12:40;;;;;;;8.50;3.92;;;20.90;99.90;;;;;;5035906;28;20057;-81
2022/05/10 08:15:08;;;;;;;8.82;4.43;;;20.90;99.90;;;;;;5018626;28;20042;-81
2022/05/10 08:17:34;;;;;;;9.88;3.75;;;21.00;99.90;;;;;;5037239;28;20108;-81
2022/05/10 08:19:59;;;;;;;9.18;3.88;;;21.00;99.90;;;;;;5038093;28;20106;-82
2022/05/10 08:22:25;;;;;;;12.45;4.05;;;21.00;99.90;;;;;;5038500;28;20038;-80
2022/05/10 08:24:51;;;;;;;9.07;3.72;;;21.00;99.90;;;;;;5037017;28;20048;-83
2022/05/10 08:27:16;;;;;;;10.43;3.88;;;20.90;99.90;;;;;;5036006;28;20113;-80
2022/05/10 08:29:42;;;;;;;9.90;3.63;;;20.90;99.90;;;;;;5036627;28;20130;-81
2022/05/10 08:32:08;;;;;;;6.93;3.38;;;20.90;99.90;;;;;;5020049;28;20045;-80
2022/05/10 08:34:35;;;;;;;9.07;3.88;;;21.00;99.90;;;;;;5036317;28;20183;-80
2022/05/10 08:37:04;;;;;;;7.25;3.83;;;21.00;99.90;;;;;;5038927;28;20041;-82
2022/05/10 08:39:30;;;;;;;7.45;3.60;;;21.10;99.90;;;;;;5037462;28;20085;-81
2022/05/10 08:41:59;;;;;;;7.38;3.10;;;21.20;99.90;;;;;;5037859;28;20418;-80
2022/05/10 08:44:28;;;;;;;7.63;3.40;;;21.30;99.90;;;;;;5036216;28;20064;-80
2022/05/10 08:46:58;;;;;;;11.38;3.55;;;21.40;99.90;;;;;;5036196;28;20376;-80
2022/05/10 08:49:33;;;;;;;7.47;3.10;;;21.50;99.90;;;;;;5036419;28;20385;-80
2022/05/10 08:51:58;;;;;;;6.65;3.20;;;21.60;99.90;;;;;;5033424;28;20046;-80
2022/05/10 08:54:25;;;;;;;9.68;3.47;;;21.50;99.90;;;;;;5034353;28;20049;-80
2022/05/10 08:56:55;;;;;;;6.90;3.20;;;21.60;99.70;;;;;;5036154;28;20077;-80
2022/05/10 08:59:54;;;;;;;5.28;2.88;;;21.60;99.90;;;;;;5033809;28;20056;-81
2022/05/10 09:02:44;;;;;;;11.30;3.28;;;21.60;99.00;;;;;;5034739;28;20051;-80
2022/05/10 09:05:28;;;;;;;7.45;2.83;;;21.70;98.60;;;;;;5032799;28;20037;-82
2022/05/10 09:08:22;;;;;;;6.95;2.85;;;21.70;98.40;;;;;;5031455;28;20056;-82
2022/05/10 09:11:01;;;;;;;5.65;2.90;;;21.70;99.20;;;;;;5032504;28;20081;-81
2022/05/10 09:13:27;;;;;;;8.07;2.67;;;21.80;99.30;;;;;;5014990;28;20107;-81
2022/05/10 09:15:59;;;;;;;8.35;2.90;;;21.90;99.20;;;;;;5030515;28;20041;-82
2022/05/10 09:18:27;;;;;;;8.65;3.13;;;21.90;99.10;;;;;;5031090;28;20660;-82
2022/05/10 09:21:23;;;;;;;7.65;2.80;;;21.90;99.00;;;;;;5030678;28;20081;-84
2022/05/10 09:24:00;;;;;;;9.25;3.50;;;22.00;98.20;;;;;;5030035;28;20473;-83
2022/05/10 09:26:35;;;;;;;7.45;3.65;;;22.10;98.60;;;;;;5030908;28;20155;-83
2022/05/10 09:29:10;;;;;;;4.35;2.70;;;22.20;98.20;;;;;;5030368;28;20579;-82
2022/05/10 09:37:31;;;;;;;10.15;3.40;;;22.50;97.00;;;;;;5034085;28;20143;-83
2022/05/10 09:39:56;;;;;;;8.32;3.80;;;22.50;96.80;;;;;;5034596;28;20052;-86
2022/05/10 09:42:31;;;;;;;7.20;3.45;;;22.50;96.80;;;;;;5018313;28;20033;-86
2022/05/10 09:45:20;;;;;;;8.18;3.58;;;22.60;96.90;;;;;;5034119;28;20393;-85
2022/05/10 09:48:17;;;;;;;6.85;4.10;;;22.70;97.10;;;;;;5018395;28;20464;-86
2022/05/10 09:50:49;;;;;;;6.22;3.38;;;22.80;96.50;;;;;;5034502;28;20083;-87
2022/05/10 09:53:25;;;;;;;9.02;3.88;;;23.00;97.20;;;;;;5018067;28;20042;-86
2022/05/10 09:56:05;;;;;;;9.07;4.20;;;23.10;97.00;;;;;;5033996;28;20376;-86
2022/05/10 09:58:43;;;;;;;9.70;4.40;;;23.00;96.90;;;;;;5017741;28;20066;-86
2022/05/10 10:01:12;;;;;;;8.55;4.22;;;22.90;96.60;;;;;;5033554;28;20042;-87
2022/05/10 10:03:41;;;;;;;6.63;4.13;;;22.70;96.70;;;;;;5033969;28;20088;-87
2022/05/10 10:06:23;;;;;;;7.95;4.18;;;22.70;97.00;;;;;;5017105;28;20108;-88
2022/05/10 10:08:58;;;;;;;8.75;4.35;;;22.70;97.30;;;;;;5017162;28;20087;-86
2022/05/10 10:11:26;;;;;;;16.35;4.60;;;22.70;96.90;;;;;;5046037;28;20033;-86
2022/05/10 10:14:06;;;;;;;11.60;4.20;;;22.80;97.30;;;;;;5052843;28;20041;-87
2022/05/10 10:16:49;;;;;;;10.25;4.70;;;22.80;97.10;;;;;;5036722;28;20041;-85
2022/05/10 10:19:18;;;;;;;8.75;5.10;;;22.80;96.80;;;;;;5036933;28;20045;-88
2022/05/10 10:21:54;;;;;;;7.32;5.15;;;22.90;97.20;;;;;;5053306;28;20098;-87
2022/05/10 10:24:49;;;;;;;10.13;4.60;;;23.00;96.70;;;;;;5053055;28;20037;-87
2022/05/10 10:27:28;;;;;;;7.32;4.97;;;23.30;97.00;;;;;;5037095;28;20087;-87
2022/05/10 10:30:19;;;;;;;8.00;5.15;;;23.70;97.20;;;;;;5036730;28;20074;-89
2022/05/10 10:32:54;;;;;;;9.35;5.30;;;23.80;96.90;;;;;;5036537;28;20486;-87
2022/05/10 10:35:50;;;;;;;10.50;5.53;;;23.80;96.80;;;;;;5036110;28;20051;-88
2022/05/10 10:38:18;;;;;;;11.70;5.28;;;23.80;96.70;;;;;;5053323;28;20066;-84
2022/05/10 10:40:51;;;;;;;8.32;4.88;;;23.80;96.90;;;;;;5056119;28;20501;-88
2022/05/10 10:43:40;;;;;;;7.07;4.93;;;23.90;97.00;;;;;;5054199;28;20044;-83
2022/05/10 10:46:47;;;;;;;12.23;5.97;;;24.00;96.30;;;;;;5051735;28;20044;-87
2022/05/10 10:49:44;;;;;;;11.38;5.70;;;23.90;96.10;;;;;;5016638;28;20210;-90
2022/05/10 10:52:10;;;;;;;16.02;6.00;;;23.80;96.50;;;;;;5001655;28;20073;-87
2022/05/10 10:54:39;;;;;;;14.35;6.93;;;23.60;96.50;;;;;;5035885;28;20040;-88
2022/05/10 10:57:22;;;;;;;12.43;5.70;;;23.50;96.40;;;;;;5053252;28;20423;-89
2022/05/10 11:00:04;;;;;;;9.30;5.68;;;23.30;96.80;;;;;;5036129;28;20099;-88
2022/05/10 11:02:46;;;;;;;12.38;5.70;;;23.10;97.00;;;;;;5036305;28;20253;-88
2022/05/10 11:05:30;;;;;;;11.13;6.28;;;23.00;97.10;;;;;;5035998;28;20402;-87
2022/05/10 11:08:25;;;;;;;8.95;4.25;;;22.90;97.50;;;;;;5036313;28;20036;-88
2022/05/10 11:11:07;;;;;;;8.52;3.53;;;22.70;96.90;;;;;;5036146;28;20040;-86
2022/05/10 11:14:00;;;;;;;9.07;3.47;;;22.60;95.90;;;;;;5052458;28;20117;-86
2022/05/10 11:16:49;;;;;;;8.95;3.45;;;22.50;95.50;;;;;;5035774;28;20045;-88
2022/05/10 11:19:41;;;;;;;10.68;3.22;;;22.40;95.70;;;;;;5036018;28;20048;-88
2022/05/10 11:22:33;;;;;;;8.25;2.88;;;22.40;95.50;;;;;;5035367;28;20044;-87
2022/05/10 11:25:19;;;;;;;9.80;3.13;;;22.50;95.50;;;;;;5051750;28;20121;-87
2022/05/10 11:28:04;;;;;;;6.97;3.17;;;22.70;95.90;;;;;;5035284;28;20041;-86
2022/05/10 11:31:11;;;;;;;6.03;2.85;;;23.00;95.70;;;;;;5052247;28;20410;-87
2022/05/10 11:34:00;;;;;;;9.57;3.20;;;23.30;96.30;;;;;;4998058;28;20047;-88
2022/05/10 11:36:45;;;;;;;9.07;3.47;;;23.30;94.60;;;;;;5034944;28;20574;-88
2022/05/10 11:39:25;;;;;;;9.80;4.22;;;23.40;94.60;;;;;;5051907;28;20075;-87
2022/05/10 11:42:32;;;;;;;11.45;4.47;;;23.30;94.40;;;;;;5051742;28;20072;-86
2022/05/10 11:45:13;;;;;;;8.98;3.80;;;23.30;94.50;;;;;;5055015;28;20388;-89
2022/05/10 11:48:22;;;;;;;9.52;4.00;;;23.20;94.70;;;;;;5035302;28;20128;-86
2022/05/10 11:54:29;;;;;;;11.57;5.18;;;23.00;94.70;;;;;;5050934;28;20057;-87
2022/05/10 11:56:58;;;;;;;8.75;4.75;;;23.00;95.10;;;;;;5035079;28;20052;-88
2022/05/10 11:59:34;;;;;;;11.07;4.93;;;23.30;95.70;;;;;;5051571;28;20124;-85
2022/05/10 12:02:00;;;;;;;10.70;5.32;;;23.40;95.20;;;;;;5052768;28;20052;-87
2022/05/10 12:04:38;;;;;;;8.85;4.97;;;23.60;95.30;;;;;;5050489;28;20052;-87
2022/05/10 12:07:20;;;;;;;10.45;5.45;;;23.80;94.90;;;;;;5051390;28;20048;-87
2022/05/10 12:09:52;;;;;;;14.70;5.90;;;24.00;95.70;;;;;;5034450;28;20491;-85
2022/05/10 12:12:33;;;;;;;17.75;6.80;;;24.10;96.00;;;;;;5051090;28;20562;-88
2022/05/10 12:24:13;;;;;;;11.50;7.13;;;24.00;95.60;;;;;;5051070;28;20040;-86
2022/05/10 12:26:49;;;;;;;11.30;6.25;;;23.80;95.20;;;;;;5034884;28;20457;-86
2022/05/10 12:29:39;;;;;;;17.58;5.47;;;23.80;95.70;;;;;;5053118;28;20124;-85
2022/05/10 12:32:30;;;;;;;10.85;5.38;;;23.80;96.10;;;;;;5035273;28;20188;-88
2022/05/10 12:34:57;;;;;;;13.13;5.13;;;23.90;96.20;;;;;;5050883;28;20075;-87
2022/05/10 12:37:26;;;;;;;14.63;4.40;;;23.90;95.70;;;;;;5051089;28;20055;-87
2022/05/10 12:40:09;;;;;;;11.93;4.50;;;23.80;96.00;;;;;;5034506;28;20048;-89
2022/05/10 12:42:44;;;;;;;14.75;4.70;;;23.80;96.10;;;;;;5034620;28;20494;-87
2022/05/10 12:45:44;;;;;;;13.63;4.90;;;23.50;95.80;;;;;;5050422;28;20453;-87
2022/05/10 12:48:47;;;;;;;7.57;4.55;;;23.30;96.00;;;;;;5034001;28;20090;-87
2022/05/10 12:51:32;;;;;;;12.57;4.55;;;23.20;96.00;;;;;;5050290;28;20072;-88
2022/05/10 12:54:09;;;;;;;10.45;4.45;;;23.00;96.20;;;;;;5033428;28;20052;-87
2022/05/10 12:56:40;;;;;;;10.82;4.15;;;23.10;96.40;;;;;;5050671;28;20440;-88
2022/05/10 12:59:33;;;;;;;7.97;4.07;;;23.10;97.00;;;;;;5050392;28;20036;-87
2022/05/10 13:01:59;;;;;;;12.77;3.83;;;23.00;96.10;;;;;;5050162;28;20094;-89
2022/05/10 13:04:30;;;;;;;12.38;3.55;;;23.10;96.00;;;;;;5049826;28;20051;-87
2022/05/10 13:07:25;;;;;;;6.13;3.05;;;23.20;96.10;;;;;;5033674;28;20029;-87
2022/05/10 13:09:55;;;;;;;;;;;23.20;95.30;;;;;;5033548;28;20059;-85
2022/05/10 13:12:28;;;;;;;7.65;2.95;;;23.10;94.90;;;;;;5050983;28;19970;-86
2022/05/10 13:15:02;;;;;;;9.38;3.28;;;22.80;93.80;;;;;;5049322;28;20037;-87
2022/05/10 13:17:30;;;;;;;9.00;2.92;;;22.70;93.70;;;;;;5033842;28;20045;-86
2022/05/10 13:19:57;;;;;;;8.68;3.10;;;22.60;94.10;;;;;;5050071;28;20055;-85
2022/05/10 13:22:25;;;;;;;10.00;2.50;;;22.50;93.40;;;;;;5033176;28;20045;-85
2022/05/10 13:24:55;;;;;;;7.38;2.92;;;22.40;93.60;;;;;;5033162;28;20037;-85
2022/05/10 13:27:36;;;;;;;14.55;2.90;;;22.30;93.40;;;;;;5049935;28;20075;-85
2022/05/10 13:30:10;;;;;;;10.52;2.60;;;22.10;93.50;;;;;;5050052;28;20045;-85
2022/05/10 13:32:40;;;;;;;8.30;2.70;;;22.20;93.60;;;;;;5050098;28;20037;-86